createdAt,value
2018-06-07T00:00:40.549Z,77.49
2018-06-07T00:03:09.697Z,77.03
2018-06-07T00:05:38.874Z,77.64
2018-06-07T00:08:08.029Z,78.07
2018-06-07T00:10:37.400Z,77.60
2018-06-07T00:13:06.377Z,77.00
2018-06-07T00:15:35.549Z,76.85
2018-06-07T00:18:04.741Z,77.33
2018-06-07T00:20:33.884Z,76.98
2018-06-07T00:23:03.041Z,77.10
2018-06-07T00:25:32.203Z,77.88
2018-06-07T00:28:01.352Z,77.07
2018-06-07T00:30:30.497Z,77.66
2018-06-07T00:32:59.661Z,77.52
2018-06-07T00:35:34.039Z,78.42
2018-06-07T00:38:03.201Z,78.29
2018-06-07T00:40:32.357Z,78.40
2018-06-07T00:43:01.542Z,78.31
2018-06-07T00:45:30.700Z,77.92
2018-06-07T00:47:59.881Z,78.04
2018-06-07T00:50:29.036Z,78.13
2018-06-07T00:52:58.284Z,77.98
2018-06-07T00:55:27.449Z,78.00
2018-06-07T00:57:56.721Z,77.73
2018-06-07T01:00:25.904Z,77.67
2018-06-07T01:02:55.881Z,78.36
2018-06-07T01:05:25.056Z,78.11
2018-06-07T01:07:54.237Z,78.08
2018-06-07T01:10:23.440Z,77.84
2018-06-07T01:12:52.590Z,77.53
2018-06-07T01:15:21.738Z,77.81
2018-06-07T01:17:50.906Z,77.39
2018-06-07T01:20:20.057Z,77.51
2018-06-07T01:22:49.222Z,78.26
2018-06-07T01:25:18.373Z,77.73
2018-06-07T01:27:47.522Z,78.02
2018-06-07T01:30:33.069Z,77.51
2018-06-07T01:33:51.715Z,77.42
2018-06-07T01:36:20.885Z,78.00
2018-06-07T01:39:07.283Z,78.08
2018-06-07T01:41:36.904Z,77.13
2018-06-07T01:44:06.058Z,77.80
2018-06-07T01:46:35.217Z,77.59
2018-06-07T01:49:04.392Z,77.53
2018-06-07T01:51:33.537Z,77.56
2018-06-07T01:54:02.777Z,77.90
2018-06-07T01:56:31.941Z,78.35
2018-06-07T01:59:01.091Z,78.29
2018-06-07T02:01:30.248Z,77.50
2018-06-07T02:03:59.485Z,77.93
2018-06-07T02:06:28.872Z,78.59
2018-06-07T02:08:58.029Z,77.79
2018-06-07T02:11:27.175Z,77.17
2018-06-07T02:13:56.340Z,77.61
2018-06-07T02:16:25.501Z,77.96
2018-06-07T02:18:54.662Z,77.49
2018-06-07T02:21:23.808Z,77.17
2018-06-07T02:23:54.211Z,78.02
2018-06-07T02:26:23.361Z,78.25
2018-06-07T02:28:52.521Z,78.51
2018-06-07T02:31:21.681Z,77.71
2018-06-07T02:33:50.837Z,77.15
2018-06-07T02:36:20.008Z,78.37
2018-06-07T02:38:49.153Z,78.42
2018-06-07T02:41:18.307Z,77.88
2018-06-07T02:43:47.569Z,77.69
2018-06-07T02:46:16.714Z,78.26
2018-06-07T02:48:45.871Z,77.91
2018-06-07T02:51:15.029Z,77.58
2018-06-07T02:53:44.254Z,78.24
2018-06-07T02:56:13.420Z,77.76
2018-06-07T02:58:42.573Z,78.40
2018-06-07T03:01:11.730Z,78.80
2018-06-07T03:03:40.897Z,78.13
2018-06-07T03:06:10.057Z,78.41
2018-06-07T03:08:39.196Z,77.98
2018-06-07T03:11:08.366Z,78.16
2018-06-07T03:13:37.524Z,78.20
2018-06-07T03:16:06.681Z,78.02
2018-06-07T03:18:35.849Z,78.43
2018-06-07T03:21:04.989Z,78.25
2018-06-07T03:23:34.141Z,78.22
2018-06-07T03:26:03.301Z,78.03
2018-06-07T03:28:32.509Z,77.96
2018-06-07T03:31:01.802Z,78.01
2018-06-07T03:33:30.731Z,77.95
2018-06-07T03:35:59.873Z,78.61
2018-06-07T03:38:29.038Z,77.89
2018-06-07T03:40:58.224Z,78.30
2018-06-07T03:43:27.496Z,77.64
2018-06-07T03:45:56.653Z,77.16
2018-06-07T03:49:54.887Z,77.63
2018-06-07T03:52:24.067Z,77.86
2018-06-07T03:54:53.182Z,78.08
2018-06-07T03:57:22.337Z,77.74
2018-06-07T03:59:51.577Z,78.56
2018-06-07T04:02:20.747Z,78.25
2018-06-07T04:04:49.889Z,78.19
2018-06-07T04:07:19.045Z,77.98
2018-06-07T04:09:48.186Z,77.92
2018-06-07T04:12:17.333Z,78.41
2018-06-07T04:14:46.505Z,78.96
2018-06-07T04:17:15.654Z,78.32
2018-06-07T04:19:44.809Z,78.49
2018-06-07T04:22:13.957Z,77.59
2018-06-07T04:24:43.125Z,78.13
2018-06-07T04:27:12.293Z,77.96
2018-06-07T04:29:41.455Z,77.85
2018-06-07T04:32:16.902Z,77.34
2018-06-07T04:34:46.082Z,77.38
2018-06-07T04:37:15.230Z,77.73
2018-06-07T04:39:44.377Z,77.57
2018-06-07T04:42:13.682Z,77.40
2018-06-07T04:44:42.845Z,76.95
2018-06-07T04:47:11.993Z,76.95
2018-06-07T04:49:41.162Z,77.25
2018-06-07T04:52:10.313Z,76.79
2018-06-07T04:54:39.468Z,77.37
2018-06-07T04:57:08.770Z,76.91
2018-06-07T04:59:37.905Z,77.36
2018-06-07T05:02:07.053Z,76.98
2018-06-07T05:04:36.213Z,77.59
2018-06-07T05:07:05.399Z,77.62
2018-06-07T05:09:34.551Z,78.00
2018-06-07T05:12:03.705Z,77.17
2018-06-07T05:14:32.851Z,78.03
2018-06-07T05:17:01.998Z,78.16
2018-06-07T05:19:31.221Z,77.81
2018-06-07T05:22:00.369Z,78.49
2018-06-07T05:24:29.530Z,77.41
2018-06-07T05:26:58.715Z,77.43
2018-06-07T05:29:27.821Z,77.41
2018-06-07T05:31:57.046Z,76.86
2018-06-07T05:34:26.159Z,76.87
2018-06-07T05:36:55.794Z,75.20
2018-06-07T05:39:24.943Z,75.64
2018-06-07T05:41:54.089Z,75.07
2018-06-07T05:44:23.286Z,75.47
2018-06-07T05:46:52.511Z,75.63
2018-06-07T05:49:21.661Z,75.59
2018-06-07T05:51:50.830Z,75.97
2018-06-07T05:54:23.128Z,75.04
2018-06-07T05:56:52.721Z,74.79
2018-06-07T05:59:21.870Z,73.85
2018-06-07T06:01:51.021Z,74.19
2018-06-07T06:04:20.296Z,74.24
2018-06-07T06:06:49.442Z,73.57
2018-06-07T06:09:18.652Z,72.38
2018-06-07T06:11:47.766Z,73.06
2018-06-07T06:14:16.929Z,72.58
2018-06-07T06:16:46.072Z,72.92
2018-06-07T06:19:15.249Z,72.87
2018-06-07T06:21:44.406Z,72.92
2018-06-07T06:24:13.571Z,72.28
2018-06-07T06:26:42.720Z,72.16
2018-06-07T06:29:11.866Z,71.89
2018-06-07T06:31:41.029Z,72.65
2018-06-07T06:34:10.217Z,73.55
2018-06-07T06:36:39.411Z,71.42
2018-06-07T06:39:08.968Z,72.29
2018-06-07T06:41:38.089Z,72.14
2018-06-07T06:44:07.333Z,72.09
2018-06-07T06:46:36.489Z,72.32
2018-06-07T06:49:05.877Z,72.18
2018-06-07T06:51:35.045Z,71.12
2018-06-07T06:54:04.205Z,69.66
2018-06-07T06:56:33.367Z,70.46
2018-06-07T06:59:02.693Z,69.85
2018-06-07T07:01:31.837Z,70.17
2018-06-07T07:04:00.994Z,69.79
2018-06-07T07:06:30.293Z,69.27
2018-06-07T07:08:59.264Z,69.32
2018-06-07T07:11:28.371Z,69.66
2018-06-07T07:13:57.525Z,69.66
2018-06-07T07:16:26.678Z,68.55
2018-06-07T07:18:55.842Z,67.54
2018-06-07T07:21:25.017Z,67.94
2018-06-07T07:23:54.162Z,67.86
2018-06-07T07:26:23.321Z,66.90
2018-06-07T07:28:52.488Z,67.60
2018-06-07T07:31:21.648Z,66.43
2018-06-07T07:33:50.810Z,67.08
2018-06-07T07:36:19.969Z,67.81
2018-06-07T07:38:49.133Z,68.13
2018-06-07T07:41:18.497Z,69.02
2018-06-07T07:43:47.649Z,68.42
2018-06-07T07:46:16.813Z,68.12
2018-06-07T07:48:45.964Z,68.37
2018-06-07T07:51:15.129Z,68.68
2018-06-07T07:53:44.293Z,69.04
2018-06-07T07:56:13.453Z,68.44
2018-06-07T07:58:42.602Z,68.10
2018-06-07T08:01:11.757Z,68.62
2018-06-07T08:03:40.893Z,67.98
2018-06-07T08:06:10.095Z,68.36
2018-06-07T08:08:39.257Z,68.31
2018-06-07T08:11:08.565Z,67.26
2018-06-07T08:13:37.721Z,67.08
2018-06-07T08:16:06.914Z,67.52
2018-06-07T08:18:36.078Z,67.47
2018-06-07T08:21:05.225Z,67.10
2018-06-07T08:23:34.389Z,66.79
2018-06-07T08:26:03.565Z,66.52
2018-06-07T08:28:32.727Z,65.72
2018-06-07T08:31:01.875Z,65.31
2018-06-07T08:33:31.029Z,66.04
2018-06-07T08:36:00.182Z,66.20
2018-06-07T08:38:29.350Z,66.40
2018-06-07T08:40:58.518Z,65.87
2018-06-07T08:43:27.678Z,65.49
2018-06-07T08:45:56.997Z,65.98
2018-06-07T08:48:26.153Z,66.37
2018-06-07T08:50:55.309Z,66.66
2018-06-07T08:53:24.460Z,66.64
2018-06-07T08:55:53.609Z,66.35
2018-06-07T08:58:22.777Z,64.92
2018-06-07T09:00:51.926Z,65.55
2018-06-07T09:03:21.074Z,64.46
2018-06-07T09:05:50.656Z,64.68
2018-06-07T09:08:19.801Z,65.88
2018-06-07T09:10:48.949Z,64.50
2018-06-07T09:13:18.352Z,62.67
2018-06-07T09:15:47.493Z,63.73
2018-06-07T09:18:16.653Z,60.98
2018-06-07T09:20:45.824Z,63.01
2018-06-07T09:23:14.998Z,62.30
2018-06-07T09:25:44.154Z,63.42
2018-06-07T09:28:13.302Z,63.52
2018-06-07T09:30:42.491Z,63.11
2018-06-07T09:33:11.633Z,62.28
2018-06-07T09:35:40.778Z,64.45
2018-06-07T09:38:10.206Z,62.54
2018-06-07T09:40:39.349Z,62.51
2018-06-07T09:43:08.497Z,63.41
2018-06-07T09:45:37.668Z,63.38
2018-06-07T09:48:06.858Z,63.37
2018-06-07T09:50:36.003Z,64.66
2018-06-07T09:53:05.162Z,65.10
2018-06-07T09:55:34.609Z,63.38
2018-06-07T09:58:03.799Z,63.87
2018-06-07T10:00:32.912Z,63.58
2018-06-07T10:03:02.078Z,63.16
2018-06-07T10:05:31.310Z,63.42
2018-06-07T10:08:00.469Z,63.05
2018-06-07T10:10:29.797Z,63.50
2018-06-07T10:12:58.945Z,63.45
2018-06-07T10:15:28.110Z,64.55
2018-06-07T10:17:57.273Z,64.50
2018-06-07T10:20:26.429Z,62.04
2018-06-07T10:22:55.821Z,63.65
2018-06-07T10:25:24.985Z,61.40
2018-06-07T10:27:54.157Z,61.90
2018-06-07T10:30:23.316Z,61.60
2018-06-07T10:32:52.488Z,59.46
2018-06-07T10:35:21.653Z,61.79
2018-06-07T10:37:50.812Z,61.84
2018-06-07T10:40:19.965Z,61.67
2018-06-07T10:42:49.126Z,62.40
2018-06-07T10:45:18.277Z,60.19
2018-06-07T10:47:47.486Z,60.16
2018-06-07T10:50:16.879Z,61.61
2018-06-07T10:52:45.787Z,62.85
2018-06-07T10:55:14.946Z,60.56
2018-06-07T10:57:44.165Z,61.47
2018-06-07T11:00:13.353Z,61.74
2018-06-07T11:02:42.938Z,59.45
2018-06-07T11:05:12.090Z,59.68
2018-06-07T11:07:41.238Z,59.68
2018-06-07T11:10:10.193Z,60.54
2018-06-07T11:12:39.350Z,60.05
2018-06-07T11:15:08.732Z,57.48
2018-06-07T11:17:37.897Z,55.63
2018-06-07T11:20:07.065Z,55.86
2018-06-07T11:22:36.529Z,55.89
2018-06-07T11:25:05.697Z,56.69
2018-06-07T11:27:34.849Z,54.23
2018-06-07T11:30:06.072Z,53.88
2018-06-07T11:32:34.995Z,54.05
2018-06-07T11:35:04.169Z,55.39
2018-06-07T11:37:33.333Z,55.95
2018-06-07T11:40:02.493Z,56.62
2018-06-07T11:42:31.653Z,54.71
2018-06-07T11:45:00.810Z,54.97
2018-06-07T11:47:29.969Z,55.66
2018-06-07T11:49:59.137Z,54.39
2018-06-07T11:52:28.385Z,55.18
2018-06-07T11:54:57.575Z,55.81
2018-06-07T11:57:26.693Z,54.98
2018-06-07T11:59:56.140Z,55.36
2018-06-07T12:02:25.297Z,56.73
2018-06-07T12:04:54.460Z,56.67
2018-06-07T12:07:23.628Z,55.75
2018-06-07T12:09:52.777Z,57.05
2018-06-07T12:12:21.969Z,56.37
2018-06-07T12:14:51.129Z,57.71
2018-06-07T12:17:20.292Z,59.49
2018-06-07T12:19:49.621Z,56.97
2018-06-07T12:22:18.777Z,57.38
2018-06-07T12:24:47.950Z,58.65
2018-06-07T12:27:17.162Z,57.94
2018-06-07T12:29:46.606Z,58.77
2018-06-07T12:32:15.758Z,55.60
2018-06-07T12:34:44.933Z,58.35
2018-06-07T12:37:14.113Z,55.31
2018-06-07T12:39:43.295Z,54.19
2018-06-07T12:42:12.462Z,55.55
2018-06-07T12:44:41.621Z,56.08
2018-06-07T12:47:10.789Z,57.26
2018-06-07T12:49:39.945Z,55.61
2018-06-07T12:52:09.114Z,57.64
2018-06-07T12:54:38.265Z,57.79
2018-06-07T12:57:07.453Z,58.65
2018-06-07T12:59:36.597Z,58.79
2018-06-07T13:02:05.800Z,59.13
2018-06-07T13:04:34.965Z,59.82
2018-06-07T13:07:04.409Z,59.07
2018-06-07T13:09:33.586Z,59.50
2018-06-07T13:12:02.881Z,58.59
2018-06-07T13:14:32.096Z,57.32
2018-06-07T13:17:01.246Z,57.97
2018-06-07T13:19:30.415Z,59.63
2018-06-07T13:21:59.565Z,59.00
2018-06-07T13:24:28.729Z,59.71
2018-06-07T13:26:57.893Z,58.66
2018-06-07T13:29:27.047Z,59.06
2018-06-07T13:31:56.306Z,56.74
2018-06-07T13:34:25.454Z,57.58
2018-06-07T13:36:54.613Z,58.02
2018-06-07T13:39:23.776Z,59.47
2018-06-07T13:41:52.926Z,58.05
2018-06-07T13:44:22.095Z,56.59
2018-06-07T13:46:51.243Z,55.37
2018-06-07T13:49:20.555Z,55.72
2018-06-07T13:51:49.717Z,56.05
2018-06-07T13:54:18.883Z,55.49
2018-06-07T13:56:48.325Z,55.37
2018-06-07T13:59:17.486Z,56.27
2018-06-07T14:01:46.653Z,55.61
2018-06-07T14:04:15.824Z,56.15
2018-06-07T14:06:44.982Z,54.94
2018-06-07T14:09:14.149Z,55.53
2018-06-07T14:11:43.310Z,57.01
2018-06-07T14:14:12.456Z,55.91
2018-06-07T14:16:41.621Z,53.57
2018-06-07T14:19:10.772Z,54.80
2018-06-07T14:21:39.921Z,55.13
2018-06-07T14:24:09.092Z,55.59
2018-06-07T14:26:38.237Z,56.34
2018-06-07T14:29:07.436Z,56.59
2018-06-07T14:31:36.594Z,56.09
2018-06-07T14:34:05.815Z,56.20
2018-06-07T14:36:34.960Z,56.55
2018-06-07T14:39:06.325Z,56.36
2018-06-07T14:41:35.503Z,57.10
2018-06-07T14:44:04.666Z,55.40
2018-06-07T14:46:33.833Z,53.30
2018-06-07T14:49:02.989Z,55.05
2018-06-07T14:51:32.157Z,55.14
2018-06-07T14:54:01.350Z,54.36
2018-06-07T14:56:30.522Z,54.92
2018-06-07T14:58:59.735Z,55.51
2018-06-07T15:01:29.206Z,54.87
2018-06-07T15:03:58.365Z,54.38
2018-06-07T15:06:27.513Z,56.63
2018-06-07T15:08:56.673Z,56.41
2018-06-07T15:11:25.881Z,55.78
2018-06-07T15:13:55.277Z,56.41
2018-06-07T15:16:24.430Z,53.04
2018-06-07T15:18:53.615Z,53.95
2018-06-07T15:21:22.757Z,54.96
2018-06-07T15:23:52.019Z,55.90
2018-06-07T15:26:21.201Z,56.54
2018-06-07T15:28:50.337Z,56.24
2018-06-07T15:31:19.514Z,55.36
2018-06-07T15:33:48.673Z,55.05
2018-06-07T15:36:17.849Z,53.64
2018-06-07T15:38:47.001Z,51.80
2018-06-07T15:41:16.154Z,50.22
2018-06-07T15:43:45.309Z,47.68
2018-06-07T15:46:14.479Z,48.45
2018-06-07T15:48:43.639Z,48.90
2018-06-07T15:51:12.815Z,49.47
2018-06-07T15:53:42.101Z,51.02
2018-06-07T15:56:11.245Z,50.42
2018-06-07T15:58:40.397Z,50.27
2018-06-07T16:01:09.543Z,51.92
2018-06-07T16:03:38.685Z,50.76
2018-06-07T16:06:07.849Z,53.40
2018-06-07T16:08:37.002Z,58.81
2018-06-07T16:11:06.198Z,60.53
2018-06-07T16:13:35.354Z,60.35
2018-06-07T16:16:04.541Z,62.92
2018-06-07T16:18:33.845Z,63.36
2018-06-07T16:21:03.003Z,62.78
2018-06-07T16:23:32.133Z,63.10
2018-06-07T16:26:01.290Z,63.65
2018-06-07T16:28:30.448Z,63.15
2018-06-07T16:30:59.594Z,63.75
2018-06-07T16:33:28.785Z,64.50
2018-06-07T16:35:57.935Z,65.61
2018-06-07T16:38:27.077Z,65.43
2018-06-07T16:40:56.237Z,67.83
2018-06-07T16:43:25.388Z,68.79
2018-06-07T16:45:54.538Z,67.76
2018-06-07T16:48:23.696Z,66.35
2018-06-07T16:50:52.849Z,67.96
2018-06-07T16:53:22.009Z,67.98
2018-06-07T16:55:51.187Z,69.42
2018-06-07T16:58:20.680Z,70.21
2018-06-07T17:00:49.937Z,71.35
2018-06-07T17:03:19.086Z,71.84
2018-06-07T17:05:48.261Z,71.41
2018-06-07T17:08:17.431Z,72.33
2018-06-07T17:10:46.873Z,74.12
2018-06-07T17:13:16.028Z,73.46
2018-06-07T17:15:45.182Z,73.65
2018-06-07T17:18:14.341Z,74.12
2018-06-07T17:20:43.507Z,73.12
2018-06-07T17:23:12.662Z,74.75
2018-06-07T17:25:41.858Z,74.07
2018-06-07T17:28:11.006Z,75.07
2018-06-07T17:30:40.175Z,75.54
2018-06-07T17:33:09.326Z,73.55
2018-06-07T17:35:38.471Z,74.28
2018-06-07T17:38:07.633Z,73.86
2018-06-07T17:40:36.804Z,75.71
2018-06-07T17:43:06.093Z,73.61
2018-06-07T17:45:35.283Z,72.53
2018-06-07T17:48:04.730Z,73.25
2018-06-07T17:50:33.892Z,73.92
2018-06-07T17:53:03.340Z,72.78
2018-06-07T17:55:32.525Z,73.87
2018-06-07T17:58:01.760Z,75.58
2018-06-07T18:00:30.924Z,75.16
2018-06-07T18:03:00.074Z,74.77
2018-06-07T18:05:29.528Z,75.76
2018-06-07T18:07:58.677Z,75.55
2018-06-07T18:10:27.885Z,75.13
2018-06-07T18:12:57.047Z,76.02
2018-06-07T18:15:25.944Z,76.22
2018-06-07T18:17:55.113Z,76.17
2018-06-07T18:20:24.286Z,76.83
2018-06-07T18:22:53.433Z,76.47
2018-06-07T18:25:22.914Z,76.33
2018-06-07T18:27:52.127Z,76.72
2018-06-07T18:30:21.220Z,76.79
2018-06-07T18:32:50.393Z,76.24
2018-06-07T18:35:19.561Z,76.09
2018-06-07T18:37:48.785Z,75.71
2018-06-07T18:40:17.996Z,75.40
2018-06-07T18:42:47.182Z,74.83
2018-06-07T18:45:16.334Z,75.26
2018-06-07T18:47:45.515Z,75.69
2018-06-07T18:50:14.746Z,75.60
2018-06-07T18:52:43.901Z,75.45
2018-06-07T18:55:13.388Z,74.96
2018-06-07T18:57:42.555Z,76.49
2018-06-07T19:00:11.713Z,75.76
2018-06-07T19:02:40.879Z,74.00
2018-06-07T19:05:10.033Z,75.02
2018-06-07T19:07:39.199Z,74.46
2018-06-07T19:10:12.262Z,75.62
2018-06-07T19:12:42.859Z,75.71
2018-06-07T19:15:14.841Z,75.02
2018-06-07T19:17:44.653Z,74.50
2018-06-07T19:20:19.237Z,74.29
2018-06-07T19:22:48.391Z,75.05
2018-06-07T19:25:23.251Z,74.73
2018-06-07T19:27:52.412Z,75.24
2018-06-07T19:30:21.580Z,76.19
2018-06-07T19:32:55.954Z,76.74
2018-06-07T19:35:25.101Z,76.93
2018-06-07T19:37:54.275Z,78.07
2018-06-07T19:40:28.904Z,78.16
2018-06-07T19:42:58.170Z,78.69
2018-06-07T19:45:27.357Z,78.33
2018-06-07T19:47:56.545Z,78.43
2018-06-07T19:50:25.861Z,79.27
2018-06-07T19:52:55.026Z,79.32
2018-06-07T19:55:24.206Z,79.40
2018-06-07T19:57:53.405Z,78.30
2018-06-07T20:00:22.617Z,78.65
2018-06-07T20:02:51.774Z,77.52
2018-06-07T20:05:20.976Z,77.97
2018-06-07T20:07:50.143Z,78.73
2018-06-07T20:10:19.348Z,79.04
2018-06-07T20:12:48.621Z,78.80
2018-06-07T20:15:17.824Z,78.92
2018-06-07T20:17:47.045Z,78.81
2018-06-07T20:20:16.221Z,79.35
2018-06-07T20:22:45.465Z,78.86
2018-06-07T20:25:14.645Z,79.69
2018-06-07T20:27:43.854Z,79.89
2018-06-07T20:30:13.085Z,79.74
2018-06-07T20:32:42.244Z,79.52
2018-06-07T20:35:11.609Z,79.14
2018-06-07T20:37:40.798Z,79.45
2018-06-07T20:40:09.953Z,79.20
2018-06-07T20:42:39.415Z,79.22
2018-06-07T20:45:08.573Z,79.62
2018-06-07T20:47:37.769Z,79.07
2018-06-07T20:50:06.953Z,80.18
2018-06-07T20:52:36.137Z,79.16
2018-06-07T20:55:05.445Z,79.26
2018-06-07T20:57:35.001Z,79.15
2018-06-07T21:00:03.969Z,79.15
2018-06-07T21:02:33.173Z,79.77
2018-06-07T21:05:02.427Z,78.80
2018-06-07T21:07:31.581Z,79.29
2018-06-07T21:10:00.916Z,79.88
2018-06-07T21:12:30.376Z,80.05
2018-06-07T21:14:59.634Z,80.63
2018-06-07T21:17:28.833Z,80.06
2018-06-07T21:19:58.061Z,80.42
2018-06-07T21:22:27.688Z,80.02
2018-06-07T21:24:56.823Z,80.56
2018-06-07T21:27:25.998Z,80.71
2018-06-07T21:29:55.157Z,80.70
2018-06-07T21:32:24.589Z,80.95
2018-06-07T21:34:53.741Z,80.54
2018-06-07T21:37:22.889Z,80.63
2018-06-07T21:39:52.217Z,80.68
2018-06-07T21:42:21.389Z,81.11
2018-06-07T21:44:50.538Z,80.79
2018-06-07T21:47:19.701Z,80.67
2018-06-07T21:49:48.845Z,80.66
2018-06-07T21:52:18.095Z,81.40
2018-06-07T21:54:47.249Z,80.75
2018-06-07T21:57:16.421Z,81.27
2018-06-07T21:59:45.605Z,80.64
2018-06-07T22:02:14.765Z,80.76
2018-06-07T22:04:43.921Z,80.96
2018-06-07T22:07:13.095Z,80.98
2018-06-07T22:09:42.240Z,80.53
2018-06-07T22:12:11.445Z,80.43
2018-06-07T22:14:40.381Z,81.09
2018-06-07T22:17:09.539Z,81.09
2018-06-07T22:19:38.690Z,81.17
2018-06-07T22:22:07.869Z,81.30
2018-06-07T22:24:37.037Z,81.05
2018-06-07T22:27:06.225Z,81.09
2018-06-07T22:29:35.755Z,80.99
2018-06-07T22:32:04.884Z,80.84
2018-06-07T22:34:34.033Z,80.67
2018-06-07T22:37:03.201Z,80.73
2018-06-07T22:39:32.358Z,80.57
2018-06-07T22:42:01.517Z,80.73
2018-06-07T22:44:30.688Z,80.85
2018-06-07T22:46:59.920Z,80.91
2018-06-07T22:49:29.072Z,81.03
2018-06-07T22:51:58.594Z,81.30
2018-06-07T22:54:27.745Z,80.85
2018-06-07T22:56:56.892Z,80.83
2018-06-07T22:59:26.333Z,81.39
2018-06-07T23:01:55.479Z,80.73
2018-06-07T23:04:24.653Z,81.47
2018-06-07T23:06:53.809Z,81.03
2018-06-07T23:09:22.965Z,80.70
2018-06-07T23:11:52.129Z,81.19
2018-06-07T23:14:21.426Z,80.85
2018-06-07T23:16:50.573Z,81.47
2018-06-07T23:19:19.521Z,81.39
2018-06-07T23:21:48.689Z,80.98
2018-06-07T23:24:17.849Z,80.92
2018-06-07T23:26:47.172Z,80.96
2018-06-07T23:29:16.329Z,81.30
2018-06-07T23:31:45.495Z,81.47
2018-06-07T23:34:14.970Z,81.48
2018-06-07T23:36:44.129Z,81.01
2018-06-07T23:39:13.290Z,81.31
2018-06-07T23:41:42.457Z,81.22
2018-06-07T23:44:11.626Z,80.93
2018-06-07T23:46:40.785Z,81.27
2018-06-07T23:49:09.934Z,80.62
2018-06-07T23:51:39.101Z,80.75
2018-06-07T23:54:08.273Z,81.06
2018-06-07T23:56:37.425Z,81.16
2018-06-07T23:59:06.598Z,81.74
